createdAt,value
2024-05-09T00:00:40.812Z,76.86
2024-05-09T00:01:39.370Z,76.71
2024-05-09T00:02:39.428Z,76.15
2024-05-09T00:03:39.358Z,76.10
2024-05-09T00:04:39.374Z,75.59
2024-05-09T00:05:39.408Z,75.26
2024-05-09T00:06:39.335Z,75.46
2024-05-09T00:07:39.258Z,75.67
2024-05-09T00:08:39.396Z,75.35
2024-05-09T00:09:39.243Z,75.35
2024-05-09T00:10:40.531Z,75.19
2024-05-09T00:11:39.248Z,75.02
2024-05-09T00:12:39.276Z,75.13
2024-05-09T00:13:39.243Z,74.99
2024-05-09T00:14:39.229Z,74.81
2024-05-09T00:15:39.210Z,74.96
2024-05-09T00:16:39.198Z,75.14
2024-05-09T00:17:39.395Z,75.21
2024-05-09T00:18:40.242Z,74.96
2024-05-09T00:19:39.307Z,74.81
2024-05-09T00:20:41.052Z,74.75
2024-05-09T00:21:39.085Z,74.65
2024-05-09T00:22:39.137Z,74.88
2024-05-09T00:23:39.091Z,74.57
2024-05-09T00:24:39.054Z,74.58
2024-05-09T00:25:39.040Z,74.85
2024-05-09T00:26:39.105Z,74.43
2024-05-09T00:27:39.016Z,74.55
2024-05-09T00:28:39.084Z,74.28
2024-05-09T00:29:38.993Z,74.57
2024-05-09T00:30:39.038Z,74.44
2024-05-09T00:31:38.936Z,74.44
2024-05-09T00:32:39.167Z,74.35
2024-05-09T00:33:39.144Z,74.77
2024-05-09T00:34:38.916Z,74.75
2024-05-09T00:35:39.413Z,74.79
2024-05-09T00:36:39.175Z,74.63
2024-05-09T00:37:38.861Z,74.69
2024-05-09T00:38:39.220Z,74.99
2024-05-09T00:39:39.197Z,74.80
2024-05-09T00:40:41.435Z,74.91
2024-05-09T00:41:39.300Z,74.81
2024-05-09T00:42:38.875Z,74.73
2024-05-09T00:43:38.786Z,74.92
2024-05-09T00:44:38.971Z,75.16
2024-05-09T00:45:38.784Z,75.73
2024-05-09T00:46:39.123Z,75.46
2024-05-09T00:47:38.866Z,75.39
2024-05-09T00:48:39.337Z,75.50
2024-05-09T00:49:38.850Z,74.92
2024-05-09T00:50:39.098Z,74.96
2024-05-09T00:51:38.704Z,75.59
2024-05-09T00:52:38.754Z,75.74
2024-05-09T00:53:38.798Z,75.36
2024-05-09T00:54:38.647Z,75.78
2024-05-09T00:55:38.629Z,75.53
2024-05-09T00:56:38.705Z,75.74
2024-05-09T00:57:38.601Z,75.10
2024-05-09T00:58:38.685Z,74.91
2024-05-09T00:59:38.687Z,74.76
2024-05-09T01:00:40.673Z,74.82
2024-05-09T01:01:38.635Z,74.72
2024-05-09T01:02:38.691Z,74.61
2024-05-09T01:03:38.882Z,74.80
2024-05-09T01:04:39.683Z,74.55
2024-05-09T01:05:38.567Z,74.67
2024-05-09T01:06:39.565Z,74.55
2024-05-09T01:07:38.471Z,74.46
2024-05-09T01:08:38.647Z,74.53
2024-05-09T01:09:38.455Z,74.42
2024-05-09T01:10:42.597Z,74.67
2024-05-09T01:11:39.525Z,75.26
2024-05-09T01:12:38.512Z,75.05
2024-05-09T01:13:38.377Z,74.90
2024-05-09T01:14:39.465Z,74.35
2024-05-09T01:15:38.366Z,74.41
2024-05-09T01:16:38.411Z,74.54
2024-05-09T01:17:38.455Z,74.29
2024-05-09T01:18:38.495Z,74.35
2024-05-09T01:19:38.361Z,74.28
2024-05-09T01:20:42.334Z,74.17
2024-05-09T01:21:39.305Z,74.72
2024-05-09T01:22:38.359Z,74.31
2024-05-09T01:23:38.383Z,74.36
2024-05-09T01:24:38.250Z,74.39
2024-05-09T01:25:38.302Z,74.26
2024-05-09T01:26:38.302Z,74.34
2024-05-09T01:27:38.221Z,74.72
2024-05-09T01:28:38.274Z,75.16
2024-05-09T01:29:38.204Z,74.59
2024-05-09T01:30:38.740Z,75.18
2024-05-09T01:31:38.167Z,75.03
2024-05-09T01:32:38.415Z,74.90
2024-05-09T01:33:38.623Z,75.29
2024-05-09T01:34:38.126Z,75.09
2024-05-09T01:35:38.259Z,74.47
2024-05-09T01:36:38.143Z,74.82
2024-05-09T01:37:38.061Z,74.02
2024-05-09T01:38:38.186Z,74.32
2024-05-09T01:39:38.054Z,74.42
2024-05-09T01:40:40.074Z,73.32
2024-05-09T01:41:38.043Z,73.89
2024-05-09T01:42:38.078Z,73.48
2024-05-09T01:43:37.978Z,72.72
2024-05-09T01:44:40.129Z,73.10
2024-05-09T01:45:38.020Z,73.85
2024-05-09T01:46:38.035Z,73.52
2024-05-09T01:47:38.102Z,74.18
2024-05-09T01:48:38.113Z,74.57
2024-05-09T01:49:37.996Z,73.62
2024-05-09T01:50:41.940Z,74.02
2024-05-09T01:51:37.910Z,73.26
2024-05-09T01:52:37.955Z,73.13
2024-05-09T01:53:37.898Z,72.81
2024-05-09T01:54:38.888Z,73.59
2024-05-09T01:55:37.833Z,73.48
2024-05-09T01:56:37.925Z,72.94
2024-05-09T01:57:37.822Z,72.61
2024-05-09T01:58:37.896Z,73.78
2024-05-09T01:59:37.802Z,73.20
2024-05-09T02:00:41.369Z,72.42
2024-05-09T02:01:55.825Z,72.48
2024-05-09T02:02:38.861Z,72.46
2024-05-09T02:03:37.954Z,72.14
2024-05-09T02:04:37.860Z,73.40
2024-05-09T02:05:37.983Z,73.32
2024-05-09T02:06:37.690Z,73.27
2024-05-09T02:07:38.827Z,73.02
2024-05-09T02:08:37.725Z,73.08
2024-05-09T02:09:37.671Z,73.77
2024-05-09T02:10:37.621Z,73.87
2024-05-09T02:11:37.867Z,74.08
2024-05-09T02:12:37.602Z,74.55
2024-05-09T02:13:37.698Z,74.71
2024-05-09T02:14:37.728Z,74.99
2024-05-09T02:15:37.602Z,75.04
2024-05-09T02:16:37.543Z,74.46
2024-05-09T02:17:37.894Z,74.99
2024-05-09T02:18:37.650Z,75.21
2024-05-09T02:19:37.575Z,75.42
2024-05-09T02:20:37.554Z,74.15
2024-05-09T02:21:37.546Z,74.06
2024-05-09T02:22:37.484Z,74.80
2024-05-09T02:23:37.571Z,74.36
2024-05-09T02:24:37.429Z,74.16
2024-05-09T02:25:37.548Z,74.23
2024-05-09T02:26:37.463Z,73.89
2024-05-09T02:27:39.518Z,74.56
2024-05-09T02:28:37.389Z,74.15
2024-05-09T02:29:37.415Z,74.21
2024-05-09T02:30:40.732Z,74.67
2024-05-09T02:31:37.349Z,74.07
2024-05-09T02:32:37.461Z,74.01
2024-05-09T02:33:37.749Z,73.76
2024-05-09T02:34:37.361Z,73.68
2024-05-09T02:35:37.353Z,73.78
2024-05-09T02:36:37.390Z,74.38
2024-05-09T02:37:37.263Z,73.36
2024-05-09T02:38:37.491Z,73.45
2024-05-09T02:39:37.238Z,73.84
2024-05-09T02:40:39.208Z,74.03
2024-05-09T02:41:37.268Z,73.81
2024-05-09T02:42:37.298Z,73.83
2024-05-09T02:43:37.199Z,73.86
2024-05-09T02:44:37.315Z,73.96
2024-05-09T02:45:37.150Z,74.14
2024-05-09T02:46:37.235Z,74.09
2024-05-09T02:47:37.459Z,74.17
2024-05-09T02:48:37.438Z,74.15
2024-05-09T02:49:37.396Z,74.24
2024-05-09T02:50:39.584Z,74.19
2024-05-09T02:51:37.082Z,74.35
2024-05-09T02:52:37.161Z,74.50
2024-05-09T02:53:37.267Z,74.45
2024-05-09T02:54:37.089Z,74.55
2024-05-09T02:55:37.049Z,74.77
2024-05-09T02:56:37.162Z,74.69
2024-05-09T02:57:37.004Z,74.73
2024-05-09T02:58:58.012Z,74.69
2024-05-09T02:59:37.023Z,74.88
2024-05-09T03:00:40.532Z,74.75
2024-05-09T03:01:38.073Z,75.02
2024-05-09T03:02:37.108Z,74.77
2024-05-09T03:03:37.219Z,74.93
2024-05-09T03:04:37.130Z,75.39
2024-05-09T03:05:37.317Z,74.99
2024-05-09T03:06:36.957Z,74.92
2024-05-09T03:07:36.899Z,74.84
2024-05-09T03:08:36.955Z,75.01
2024-05-09T03:09:36.855Z,74.88
2024-05-09T03:10:38.701Z,74.95
2024-05-09T03:11:36.944Z,74.92
2024-05-09T03:12:39.218Z,74.79
2024-05-09T03:13:36.810Z,74.96
2024-05-09T03:14:36.824Z,74.74
2024-05-09T03:15:37.057Z,74.78
2024-05-09T03:16:36.820Z,74.80
2024-05-09T03:17:37.059Z,74.72
2024-05-09T03:18:36.851Z,74.90
2024-05-09T03:19:36.803Z,74.80
2024-05-09T03:20:37.324Z,75.02
2024-05-09T03:21:36.666Z,74.67
2024-05-09T03:22:36.666Z,74.80
2024-05-09T03:23:36.695Z,74.82
2024-05-09T03:24:36.680Z,74.88
2024-05-09T03:25:36.675Z,75.03
2024-05-09T03:26:36.734Z,75.09
2024-05-09T03:27:36.606Z,75.27
2024-05-09T03:28:36.617Z,75.12
2024-05-09T03:29:36.577Z,74.85
2024-05-09T03:30:41.750Z,75.05
2024-05-09T03:31:37.583Z,74.80
2024-05-09T03:32:36.754Z,74.55
2024-05-09T03:33:36.880Z,74.62
2024-05-09T03:34:36.546Z,74.58
2024-05-09T03:35:36.570Z,74.68
2024-05-09T03:36:36.610Z,74.81
2024-05-09T03:37:36.466Z,74.91
2024-05-09T03:38:36.563Z,74.92
2024-05-09T03:39:36.427Z,74.93
2024-05-09T03:40:36.486Z,75.05
2024-05-09T03:41:36.488Z,74.95
2024-05-09T03:42:36.400Z,75.06
2024-05-09T03:43:36.390Z,75.25
2024-05-09T03:44:36.443Z,75.29
2024-05-09T03:45:36.336Z,75.04
2024-05-09T03:46:36.438Z,75.04
2024-05-09T03:47:36.420Z,75.35
2024-05-09T03:48:36.441Z,74.96
2024-05-09T03:49:36.349Z,75.15
2024-05-09T03:50:37.251Z,75.03
2024-05-09T03:51:36.258Z,74.78
2024-05-09T03:52:36.277Z,74.87
2024-05-09T03:53:36.360Z,74.87
2024-05-09T03:54:36.287Z,75.02
2024-05-09T03:55:36.227Z,74.88
2024-05-09T03:56:36.405Z,75.05
2024-05-09T03:57:36.191Z,74.80
2024-05-09T03:58:36.217Z,74.49
2024-05-09T03:59:36.226Z,74.88
2024-05-09T04:00:39.149Z,74.56
2024-05-09T04:01:36.472Z,74.59
2024-05-09T04:02:36.312Z,74.57
2024-05-09T04:03:36.276Z,75.44
2024-05-09T04:04:36.249Z,75.55
2024-05-09T04:05:36.222Z,75.38
2024-05-09T04:06:36.168Z,74.29
2024-05-09T04:07:36.084Z,74.37
2024-05-09T04:08:36.187Z,74.27
2024-05-09T04:09:36.049Z,74.34
2024-05-09T04:10:36.153Z,74.06
2024-05-09T04:11:36.093Z,74.03
2024-05-09T04:12:36.054Z,72.89
2024-05-09T04:13:35.987Z,72.64
2024-05-09T04:14:37.202Z,73.01
2024-05-09T04:15:35.948Z,72.76
2024-05-09T04:16:36.065Z,72.55
2024-05-09T04:17:36.377Z,72.68
2024-05-09T04:18:36.062Z,72.82
2024-05-09T04:19:36.014Z,73.13
2024-05-09T04:20:39.432Z,72.91
2024-05-09T04:21:36.886Z,73.31
2024-05-09T04:22:35.882Z,72.39
2024-05-09T04:23:36.018Z,72.98
2024-05-09T04:24:35.940Z,72.98
2024-05-09T04:25:35.820Z,73.27
2024-05-09T04:26:35.861Z,72.65
2024-05-09T04:27:35.780Z,72.46
2024-05-09T04:28:35.837Z,72.00
2024-05-09T04:29:35.775Z,72.31
2024-05-09T04:30:39.319Z,72.63
2024-05-09T04:31:36.754Z,73.62
2024-05-09T04:32:35.897Z,73.30
2024-05-09T04:33:35.969Z,73.62
2024-05-09T04:34:35.854Z,74.66
2024-05-09T04:35:35.766Z,73.11
2024-05-09T04:36:35.681Z,73.07
2024-05-09T04:37:35.660Z,73.91
2024-05-09T04:38:35.718Z,73.32
2024-05-09T04:39:35.625Z,73.85
2024-05-09T04:40:37.235Z,72.80
2024-05-09T04:41:35.659Z,73.00
2024-05-09T04:42:35.618Z,71.62
2024-05-09T04:43:35.586Z,71.75
2024-05-09T04:44:35.685Z,71.21
2024-05-09T04:45:35.912Z,71.35
2024-05-09T04:46:35.701Z,71.60
2024-05-09T04:47:35.722Z,70.66
2024-05-09T04:48:35.630Z,70.68
2024-05-09T04:49:35.776Z,70.62
2024-05-09T04:50:38.583Z,71.00
2024-05-09T04:51:35.448Z,71.04
2024-05-09T04:52:35.490Z,71.32
2024-05-09T04:53:35.465Z,70.89
2024-05-09T04:54:36.650Z,71.24
2024-05-09T04:55:35.429Z,72.22
2024-05-09T04:56:35.497Z,72.43
2024-05-09T04:57:35.382Z,71.45
2024-05-09T04:58:35.423Z,71.50
2024-05-09T04:59:35.387Z,71.70
2024-05-09T05:00:37.577Z,71.51
2024-05-09T05:01:35.371Z,71.33
2024-05-09T05:02:35.423Z,70.97
2024-05-09T05:03:35.432Z,71.54
2024-05-09T05:04:35.407Z,72.00
2024-05-09T05:05:35.516Z,73.02
2024-05-09T05:06:35.285Z,71.95
2024-05-09T05:07:35.269Z,71.16
2024-05-09T05:08:35.403Z,70.42
2024-05-09T05:09:35.199Z,71.10
2024-05-09T05:10:36.743Z,70.96
2024-05-09T05:11:35.248Z,71.41
2024-05-09T05:12:35.263Z,71.85
2024-05-09T05:13:37.881Z,71.65
2024-05-09T05:14:35.200Z,72.30
2024-05-09T05:15:35.244Z,71.41
2024-05-09T05:16:35.186Z,70.95
2024-05-09T05:17:35.357Z,71.94
2024-05-09T05:18:35.125Z,71.15
2024-05-09T05:19:35.213Z,71.13
2024-05-09T05:20:35.278Z,71.36
2024-05-09T05:21:35.122Z,71.77
2024-05-09T05:22:35.041Z,72.02
2024-05-09T05:23:35.154Z,71.27
2024-05-09T05:24:35.004Z,70.74
2024-05-09T05:25:35.061Z,70.89
2024-05-09T05:26:35.238Z,71.49
2024-05-09T05:27:35.013Z,71.36
2024-05-09T05:28:34.959Z,71.55
2024-05-09T05:29:35.247Z,70.82
2024-05-09T05:30:35.390Z,70.95
2024-05-09T05:31:35.013Z,71.15
2024-05-09T05:32:35.026Z,70.83
2024-05-09T05:33:35.125Z,71.06
2024-05-09T05:34:34.881Z,70.22
2024-05-09T05:35:35.191Z,69.64
2024-05-09T05:36:34.853Z,70.07
2024-05-09T05:37:34.944Z,70.76
2024-05-09T05:38:34.918Z,69.99
2024-05-09T05:39:34.927Z,70.34
2024-05-09T05:40:37.261Z,71.64
2024-05-09T05:41:34.925Z,71.21
2024-05-09T05:42:34.849Z,70.83
2024-05-09T05:43:34.783Z,70.91
2024-05-09T05:44:34.904Z,70.69
2024-05-09T05:45:34.742Z,70.91
2024-05-09T05:46:34.761Z,69.75
2024-05-09T05:47:34.977Z,70.26
2024-05-09T05:48:34.907Z,71.25
2024-05-09T05:49:34.744Z,71.44
2024-05-09T05:50:37.428Z,71.88
2024-05-09T05:51:34.675Z,70.96
2024-05-09T05:52:34.691Z,71.62
2024-05-09T05:53:34.906Z,71.18
2024-05-09T05:54:34.702Z,71.32
2024-05-09T05:55:34.645Z,71.28
2024-05-09T05:56:34.688Z,71.84
2024-05-09T05:57:34.749Z,70.51
2024-05-09T05:58:34.632Z,70.67
2024-05-09T05:59:35.036Z,71.70
2024-05-09T06:00:38.539Z,70.13
2024-05-09T06:01:35.627Z,69.88
2024-05-09T06:02:34.624Z,70.19
2024-05-09T06:03:34.568Z,69.78
2024-05-09T06:04:34.635Z,69.66
2024-05-09T06:05:34.532Z,69.90
2024-05-09T06:06:55.532Z,70.13
2024-05-09T06:07:34.467Z,70.32
2024-05-09T06:08:34.523Z,70.37
2024-05-09T06:09:34.440Z,69.80
2024-05-09T06:10:38.736Z,69.40
2024-05-09T06:11:35.510Z,69.27
2024-05-09T06:12:34.573Z,69.74
2024-05-09T06:13:34.381Z,69.75
2024-05-09T06:14:34.619Z,69.67
2024-05-09T06:15:34.615Z,69.25
2024-05-09T06:16:34.400Z,69.64
2024-05-09T06:17:34.487Z,69.58
2024-05-09T06:18:34.618Z,70.18
2024-05-09T06:19:34.383Z,70.28
2024-05-09T06:20:37.143Z,72.65
2024-05-09T06:21:34.260Z,74.16
2024-05-09T06:22:34.299Z,74.29
2024-05-09T06:23:34.344Z,71.79
2024-05-09T06:24:34.274Z,65.25
2024-05-09T06:25:34.703Z,67.34
2024-05-09T06:26:34.301Z,66.80
2024-05-09T06:27:34.192Z,63.99
2024-05-09T06:28:34.243Z,63.39
2024-05-09T06:29:34.176Z,63.78
2024-05-09T06:30:39.462Z,64.10
2024-05-09T06:31:35.482Z,64.49
2024-05-09T06:32:34.338Z,65.13
2024-05-09T06:33:34.567Z,67.78
2024-05-09T06:34:34.250Z,70.04
2024-05-09T06:35:34.374Z,70.63
2024-05-09T06:36:34.162Z,67.35
2024-05-09T06:37:34.059Z,68.83
2024-05-09T06:38:34.304Z,68.07
2024-05-09T06:39:34.029Z,62.56
2024-05-09T06:40:38.165Z,65.96
2024-05-09T06:41:35.083Z,60.95
2024-05-09T06:42:34.033Z,60.05
2024-05-09T06:43:33.965Z,62.64
2024-05-09T06:44:34.165Z,60.87
2024-05-09T06:45:33.944Z,64.36
2024-05-09T06:46:33.963Z,65.47
2024-05-09T06:47:34.182Z,65.49
2024-05-09T06:48:34.296Z,65.19
2024-05-09T06:49:33.984Z,64.54
2024-05-09T06:50:37.737Z,63.13
2024-05-09T06:51:34.858Z,63.50
2024-05-09T06:52:33.934Z,63.13
2024-05-09T06:53:34.063Z,61.62
2024-05-09T06:54:33.925Z,63.00
2024-05-09T06:55:33.835Z,62.78
2024-05-09T06:56:33.885Z,61.66
2024-05-09T06:57:33.794Z,62.27
2024-05-09T06:58:33.862Z,58.00
2024-05-09T06:59:33.853Z,56.47
2024-05-09T07:00:39.132Z,59.82
2024-05-09T07:01:34.822Z,62.47
2024-05-09T07:02:33.987Z,62.56
2024-05-09T07:03:33.803Z,61.88
2024-05-09T07:04:33.883Z,61.48
2024-05-09T07:05:33.752Z,60.16
2024-05-09T07:06:33.697Z,62.06
2024-05-09T07:07:33.671Z,61.94
2024-05-09T07:08:33.950Z,61.75
2024-05-09T07:09:33.646Z,59.79
2024-05-09T07:10:35.546Z,60.81
2024-05-09T07:11:33.728Z,60.84
2024-05-09T07:12:33.853Z,61.15
2024-05-09T07:13:33.582Z,61.01
2024-05-09T07:14:34.745Z,58.94
2024-05-09T07:15:33.569Z,61.08
2024-05-09T07:16:35.708Z,58.79
2024-05-09T07:17:33.716Z,58.51
2024-05-09T07:18:33.798Z,61.33
2024-05-09T07:19:33.581Z,61.08
2024-05-09T07:20:35.016Z,58.95
2024-05-09T07:21:33.485Z,60.22
2024-05-09T07:22:33.549Z,61.23
2024-05-09T07:23:33.644Z,57.23
2024-05-09T07:24:33.548Z,61.22
2024-05-09T07:25:33.423Z,59.09
2024-05-09T07:26:33.555Z,58.64
2024-05-09T07:27:33.411Z,62.08
2024-05-09T07:28:33.458Z,61.65
2024-05-09T07:29:36.287Z,57.60
2024-05-09T07:30:34.746Z,56.58
2024-05-09T07:31:33.378Z,56.85
2024-05-09T07:32:33.558Z,57.61
2024-05-09T07:33:33.545Z,57.89
2024-05-09T07:34:33.479Z,58.67
2024-05-09T07:35:33.589Z,59.34
2024-05-09T07:36:33.284Z,59.27
2024-05-09T07:37:33.322Z,60.01
2024-05-09T07:38:33.336Z,59.88
2024-05-09T07:39:33.334Z,62.31
2024-05-09T07:40:36.481Z,58.96
2024-05-09T07:41:33.399Z,60.77
2024-05-09T07:42:33.286Z,63.08
2024-05-09T07:43:33.188Z,60.43
2024-05-09T07:44:34.266Z,59.74
2024-05-09T07:50:34.133Z,59.29
2024-05-09T07:52:23.432Z,61.80
2024-05-09T07:53:33.156Z,58.76
2024-05-09T07:53:41.648Z,59.05
2024-05-09T07:54:34.217Z,57.87
2024-05-09T07:55:33.381Z,56.85
2024-05-09T07:56:33.192Z,57.47
2024-05-09T07:57:33.114Z,57.60
2024-05-09T07:58:32.994Z,57.72
2024-05-09T07:59:37.147Z,58.25
2024-05-09T08:00:33.182Z,58.43
2024-05-09T08:01:33.122Z,58.53
2024-05-09T08:02:33.263Z,59.28
2024-05-09T08:03:33.365Z,58.43
2024-05-09T08:04:32.977Z,57.91
2024-05-09T08:05:33.072Z,58.80
2024-05-09T08:06:32.884Z,59.17
2024-05-09T08:07:32.923Z,59.13
2024-05-09T08:08:32.843Z,59.65
2024-05-09T08:09:33.261Z,58.72
2024-05-09T08:10:32.838Z,59.07
2024-05-09T08:11:32.899Z,59.42
2024-05-09T08:12:32.817Z,59.18
2024-05-09T08:13:32.886Z,59.31
2024-05-09T08:14:32.762Z,59.30
2024-05-09T08:15:32.815Z,59.64
2024-05-09T08:16:32.789Z,58.26
2024-05-09T08:17:32.905Z,59.91
2024-05-09T08:18:33.108Z,58.51
2024-05-09T08:19:32.743Z,59.96
2024-05-09T08:20:35.277Z,59.12
2024-05-09T08:21:32.752Z,60.25
2024-05-09T08:22:32.650Z,60.67
2024-05-09T08:23:32.744Z,59.64
2024-05-09T08:24:32.658Z,58.13
2024-05-09T08:25:32.685Z,58.08
2024-05-09T08:26:32.587Z,58.56
2024-05-09T08:27:32.794Z,58.64
2024-05-09T08:28:32.682Z,58.07
2024-05-09T08:29:33.200Z,57.81
2024-05-09T08:30:36.895Z,58.14
2024-05-09T08:31:33.822Z,57.15
2024-05-09T08:32:33.956Z,56.93
2024-05-09T08:33:33.027Z,57.88
2024-05-09T08:34:32.667Z,56.74
2024-05-09T08:35:32.526Z,57.42
2024-05-09T08:36:32.588Z,57.26
2024-05-09T08:37:36.872Z,57.87
2024-05-09T08:38:34.925Z,57.73
2024-05-09T08:41:18.715Z,58.72
2024-05-09T08:41:56.697Z,58.69
2024-05-09T08:43:55.032Z,57.67
2024-05-09T08:44:54.926Z,57.68
2024-05-09T08:45:54.942Z,57.93
2024-05-09T08:46:54.848Z,56.81
2024-05-09T08:47:55.147Z,57.03
2024-05-09T08:48:55.089Z,59.66
2024-05-09T08:49:55.010Z,56.67
2024-05-09T08:50:54.931Z,56.03
2024-05-09T08:53:05.272Z,55.29
2024-05-09T08:54:04.071Z,55.29
2024-05-09T08:55:04.123Z,56.35
2024-05-09T08:56:04.071Z,55.43
2024-05-09T08:57:05.250Z,54.94
2024-05-09T08:58:04.125Z,53.08
2024-05-09T08:59:06.047Z,54.75
2024-05-09T09:00:07.876Z,54.92
2024-05-09T09:01:05.435Z,54.61
2024-05-09T09:02:04.354Z,55.47
2024-05-09T09:03:07.077Z,54.57
2024-05-09T09:04:05.143Z,54.42
2024-05-09T09:05:07.156Z,55.09
2024-05-09T09:06:42.241Z,53.91
2024-05-09T09:08:58.395Z,56.74
2024-05-09T09:09:39.583Z,56.75
2024-05-09T09:16:04.972Z,55.85
2024-05-09T09:16:36.734Z,55.86
2024-05-09T09:17:59.021Z,54.95
2024-05-09T09:18:36.946Z,55.45
2024-05-09T09:19:37.087Z,57.20
2024-05-09T09:20:37.256Z,55.40
2024-05-09T09:21:38.135Z,56.45
2024-05-09T09:22:37.430Z,57.34
2024-05-09T09:23:36.879Z,53.05
2024-05-09T09:24:36.676Z,56.46
2024-05-09T09:25:36.723Z,53.62
2024-05-09T09:26:36.590Z,52.71
2024-05-09T09:27:37.747Z,55.10
2024-05-09T09:28:36.567Z,60.88
2024-05-09T09:29:36.588Z,54.53
2024-05-09T09:30:38.077Z,53.66
2024-05-09T09:31:36.664Z,51.86
2024-05-09T09:32:36.686Z,52.83
2024-05-09T09:33:36.859Z,51.82
2024-05-09T09:34:36.521Z,51.46
2024-05-09T09:35:36.519Z,55.90
2024-05-09T09:36:36.558Z,52.24
2024-05-09T09:37:36.575Z,51.56
2024-05-09T09:38:36.426Z,50.60
2024-05-09T09:39:37.636Z,51.46
2024-05-09T09:40:40.688Z,51.99
2024-05-09T09:41:37.382Z,51.72
2024-05-09T09:42:36.418Z,51.85
2024-05-09T09:43:36.345Z,54.56
2024-05-09T09:44:39.553Z,53.33
2024-05-09T09:45:37.368Z,52.08
2024-05-09T09:46:57.432Z,52.25
2024-05-09T09:47:36.342Z,51.15
2024-05-09T09:48:36.496Z,51.44
2024-05-09T09:49:59.429Z,53.40
2024-05-09T09:50:36.285Z,53.98
2024-05-09T09:51:36.367Z,55.09
2024-05-09T09:52:36.470Z,51.76
2024-05-09T09:53:36.215Z,50.73
2024-05-09T09:54:37.328Z,49.93
2024-05-09T09:55:36.206Z,49.96
2024-05-09T09:56:36.288Z,52.64
2024-05-09T09:57:36.220Z,50.17
2024-05-09T09:58:36.301Z,51.09
2024-05-09T09:59:36.158Z,49.94
2024-05-09T10:00:37.463Z,50.26
2024-05-09T10:01:36.251Z,50.73
2024-05-09T10:02:57.240Z,49.49
2024-05-09T10:03:36.334Z,49.75
2024-05-09T10:04:36.264Z,49.92
2024-05-09T10:05:36.307Z,49.66
2024-05-09T10:07:48.027Z,49.45
2024-05-09T10:08:46.854Z,49.48
2024-05-09T10:09:46.866Z,50.54
2024-05-09T10:10:47.037Z,51.51
2024-05-09T10:11:51.827Z,51.15
2024-05-09T10:12:47.800Z,50.99
2024-05-09T10:13:46.848Z,51.11
2024-05-09T10:14:46.741Z,51.81
2024-05-09T10:15:46.907Z,52.51
2024-05-09T10:16:46.685Z,52.71
2024-05-09T10:17:46.842Z,53.80
2024-05-09T10:18:46.811Z,50.58
2024-05-09T10:19:46.716Z,52.75
2024-05-09T10:20:46.680Z,51.76
2024-05-09T10:21:46.890Z,51.02
2024-05-09T10:22:46.610Z,50.87
2024-05-09T10:23:46.612Z,51.65
2024-05-09T10:24:46.736Z,50.91
2024-05-09T10:25:46.618Z,51.83
2024-05-09T10:26:46.570Z,50.94
2024-05-09T10:27:46.689Z,50.94
2024-05-09T10:28:46.536Z,50.96
2024-05-09T10:29:46.540Z,52.63
2024-05-09T10:30:47.968Z,50.47
2024-05-09T10:31:46.748Z,50.19
2024-05-09T10:32:46.637Z,50.02
2024-05-09T10:33:46.684Z,50.23
2024-05-09T10:34:46.468Z,49.52
2024-05-09T10:35:46.486Z,49.07
2024-05-09T10:36:46.495Z,49.66
2024-05-09T10:37:46.509Z,50.29
2024-05-09T10:38:46.400Z,51.58
2024-05-09T10:39:46.476Z,54.04
2024-05-09T10:40:46.470Z,52.21
2024-05-09T10:41:46.427Z,52.10
2024-05-09T10:42:46.400Z,50.22
2024-05-09T10:43:46.341Z,51.04
2024-05-09T10:44:46.331Z,50.08
2024-05-09T10:45:46.367Z,49.84
2024-05-09T10:46:46.312Z,51.39
2024-05-09T10:47:46.405Z,52.83
2024-05-09T10:48:46.351Z,49.75
2024-05-09T10:49:46.394Z,50.70
2024-05-09T10:50:46.253Z,54.46
2024-05-09T10:51:46.360Z,50.86
2024-05-09T10:52:46.201Z,50.37
2024-05-09T10:53:46.227Z,50.74
2024-05-09T10:54:46.196Z,51.59
2024-05-09T10:55:46.221Z,52.08
2024-05-09T10:56:46.193Z,52.03
2024-05-09T10:57:46.270Z,49.40
2024-05-09T10:58:46.114Z,49.06
2024-05-09T10:59:47.175Z,49.61
2024-05-09T11:00:46.234Z,50.92
2024-05-09T11:01:46.301Z,50.23
2024-05-09T11:02:46.140Z,48.79
2024-05-09T11:03:46.258Z,48.06
2024-05-09T11:04:46.145Z,50.38
2024-05-09T11:05:46.193Z,51.84
2024-05-09T11:06:46.038Z,48.47
2024-05-09T11:07:46.121Z,47.47
2024-05-09T11:08:46.012Z,46.66
2024-05-09T11:09:46.048Z,45.84
2024-05-09T11:10:45.984Z,47.25
2024-05-09T11:11:46.057Z,48.51
2024-05-09T11:12:46.002Z,44.97
2024-05-09T11:13:45.957Z,46.19
2024-05-09T11:14:45.932Z,47.46
2024-05-09T11:15:45.981Z,48.53
2024-05-09T11:16:45.891Z,45.14
2024-05-09T11:17:46.037Z,44.42
2024-05-09T11:18:46.042Z,46.00
2024-05-09T11:19:45.899Z,49.55
2024-05-09T11:20:45.975Z,45.81
2024-05-09T11:21:45.964Z,45.17
2024-05-09T11:22:45.801Z,44.68
2024-05-09T11:23:45.835Z,43.23
2024-05-09T11:24:45.800Z,44.28
2024-05-09T11:25:45.857Z,45.70
2024-05-09T11:26:45.799Z,43.72
2024-05-09T11:27:45.858Z,43.43
2024-05-09T11:28:45.722Z,44.75
2024-05-09T11:29:45.783Z,45.17
2024-05-09T11:30:45.714Z,46.12
2024-05-09T11:31:45.904Z,44.70
2024-05-09T11:32:45.786Z,43.42
2024-05-09T11:33:45.957Z,43.96
2024-05-09T11:34:45.659Z,43.91
2024-05-09T11:35:45.694Z,47.19
2024-05-09T11:36:45.675Z,43.89
2024-05-09T11:37:45.716Z,43.64
2024-05-09T11:38:45.609Z,43.56
2024-05-09T11:39:45.722Z,42.85
2024-05-09T11:40:45.585Z,41.35
2024-05-09T11:41:45.633Z,44.32
2024-05-09T11:42:45.571Z,49.11
2024-05-09T11:43:45.563Z,50.13
2024-05-09T11:44:45.530Z,48.27
2024-05-09T11:45:45.562Z,44.99
2024-05-09T11:46:45.488Z,46.51
2024-05-09T11:47:45.641Z,46.62
2024-05-09T11:48:45.571Z,44.75
2024-05-09T11:49:45.725Z,42.67
2024-05-09T11:50:45.470Z,43.69
2024-05-09T11:51:45.570Z,43.35
2024-05-09T11:52:45.396Z,44.35
2024-05-09T11:53:45.645Z,44.89
2024-05-09T11:54:45.416Z,48.43
2024-05-09T11:55:45.441Z,44.73
2024-05-09T11:56:45.411Z,44.18
2024-05-09T11:57:45.472Z,43.52
2024-05-09T11:58:45.338Z,43.74
2024-05-09T11:59:45.364Z,42.13
2024-05-09T12:00:45.697Z,43.53
2024-05-09T12:01:45.592Z,43.36
2024-05-09T12:02:45.290Z,41.88
2024-05-09T12:03:45.509Z,43.81
2024-05-09T12:04:45.481Z,43.59
2024-05-09T12:05:45.657Z,44.99
2024-05-09T12:06:45.372Z,47.01
2024-05-09T12:07:45.317Z,42.15
2024-05-09T12:08:45.241Z,42.86
2024-05-09T12:09:45.294Z,43.94
2024-05-09T12:10:45.290Z,47.22
2024-05-09T12:11:45.355Z,45.67
2024-05-09T12:12:45.178Z,42.73
2024-05-09T12:13:47.280Z,42.18
2024-05-09T12:14:45.158Z,41.71
2024-05-09T12:15:45.201Z,42.85
2024-05-09T12:16:45.249Z,44.28
2024-05-09T12:17:47.799Z,42.99
2024-05-09T12:18:45.202Z,41.96
2024-05-09T12:19:45.179Z,43.10
2024-05-09T12:20:45.264Z,43.03
2024-05-09T12:21:45.218Z,43.68
2024-05-09T12:22:45.019Z,41.20
2024-05-09T12:23:45.150Z,40.48
2024-05-09T12:24:45.060Z,40.62
2024-05-09T12:25:45.078Z,40.60
2024-05-09T12:26:44.993Z,42.96
2024-05-09T12:27:45.007Z,41.08
2024-05-09T12:28:44.925Z,41.21
2024-05-09T12:29:44.972Z,41.76
2024-05-09T12:30:44.927Z,42.37
2024-05-09T12:31:45.133Z,40.69
2024-05-09T12:32:45.158Z,40.96
2024-05-09T12:33:46.035Z,40.58
2024-05-09T12:34:44.861Z,39.62
2024-05-09T12:35:47.321Z,40.49
2024-05-09T12:36:44.872Z,42.03
2024-05-09T12:37:44.940Z,44.91
2024-05-09T12:38:44.844Z,41.74
2024-05-09T12:39:44.906Z,47.77
2024-05-09T12:40:44.843Z,42.91
2024-05-09T12:41:44.853Z,44.50
2024-05-09T12:42:44.777Z,46.28
2024-05-09T12:43:44.766Z,42.41
2024-05-09T12:44:44.743Z,41.99
2024-05-09T12:45:44.842Z,39.41
2024-05-09T12:46:44.694Z,40.11
2024-05-09T12:47:45.810Z,39.37
2024-05-09T12:48:44.821Z,39.99
2024-05-09T12:49:44.807Z,39.91
2024-05-09T12:50:44.781Z,40.65
2024-05-09T12:51:44.733Z,39.60
2024-05-09T12:52:44.611Z,39.85
2024-05-09T12:53:44.630Z,37.49
2024-05-09T12:54:44.626Z,39.55
2024-05-09T12:55:53.000Z,40.60
2024-05-09T12:56:45.569Z,40.05
2024-05-09T12:57:44.688Z,47.12
2024-05-09T12:58:44.533Z,50.44
2024-05-09T12:59:44.585Z,50.83
2024-05-09T13:00:44.712Z,49.18
2024-05-09T13:01:44.669Z,46.91
2024-05-09T13:02:44.610Z,40.96
2024-05-09T13:03:44.614Z,41.39
2024-05-09T13:04:44.656Z,46.72
2024-05-09T13:05:46.097Z,49.70
2024-05-09T13:06:44.468Z,50.83
2024-05-09T13:07:44.531Z,44.29
2024-05-09T13:08:44.435Z,39.59